Time;durP1;ratioP1;P1;durP2;ratioP2;P2;SDS_P1;SDS_P2;PMS_P1;PMS_P2;Temp;Humidity;BMP_temperature;BMP_pressure;BME280_temperature;BME280_humidity;BME280_pressure;Samples;Min_cycle;Max_cycle;Signal;HPM_P1;HPM_P2
2023/10/07 00:01:25;;;;;;;3.90;2.30;;;;;;;13.36;100.00;99221.31;109751;1251;64891;-65
2023/10/07 00:03:53;;;;;;;4.70;2.60;;;;;;;13.34;100.00;99217.53;109774;1251;59033;-65
2023/10/07 00:06:26;;;;;;;4.70;3.30;;;;;;;13.31;100.00;99215.24;109700;1251;62875;-66
2023/10/07 00:08:53;;;;;;;4.60;2.40;;;;;;;13.28;100.00;99212.77;109724;1249;58912;-66
2023/10/07 00:11:20;;;;;;;5.60;2.60;;;;;;;13.27;100.00;99208.04;109715;1251;59031;-65
2023/10/07 00:13:48;;;;;;;4.70;3.10;;;;;;;13.25;100.00;99207.27;109722;1249;59383;-65
2023/10/07 00:16:18;;;;;;;4.70;2.40;;;;;;;13.24;100.00;99202.50;109775;1251;60154;-65
2023/10/07 00:18:45;;;;;;;4.10;2.60;;;;;;;13.23;100.00;99205.08;109762;1249;63804;-65
2023/10/07 00:21:15;;;;;;;4.00;2.30;;;;;;;13.20;100.00;99205.31;109697;1249;58947;-65
2023/10/07 00:23:42;;;;;;;5.40;2.40;;;;;;;13.17;100.00;99208.02;109710;1249;59079;-66
2023/10/07 00:26:09;;;;;;;5.00;3.10;;;;;;;13.16;100.00;99206.89;109760;1249;65723;-65
2023/10/07 00:28:36;;;;;;;4.90;3.00;;;;;;;13.13;100.00;99202.06;109532;1251;60049;-66
2023/10/07 00:31:06;;;;;;;2.80;2.10;;;;;;;13.13;100.00;99199.63;109660;1250;62808;-66
2023/10/07 00:33:50;;;;;;;7.90;2.50;;;;;;;13.11;100.00;99191.55;109701;1250;59011;-66
2023/10/07 00:36:41;;;;;;;3.60;2.40;;;;;;;13.07;100.00;99184.67;109789;1251;58887;-66
2023/10/07 00:39:09;;;;;;;4.50;2.40;;;;;;;13.04;100.00;99183.34;109751;1251;66039;-66
2023/10/07 00:41:46;;;;;;;6.30;2.70;;;;;;;13.02;100.00;99179.16;109605;1249;60317;-65
2023/10/07 00:44:23;;;;;;;4.10;2.50;;;;;;;13.01;100.00;99173.91;109778;1250;64049;-65
2023/10/07 00:49:53;;;;;;;4.30;2.70;;;;;;;12.97;100.00;99165.80;109758;1251;59941;-65
2023/10/07 00:52:32;;;;;;;5.70;3.00;;;;;;;12.95;100.00;99160.27;109727;1252;66039;-65
2023/10/07 00:57:47;;;;;;;5.10;2.70;;;;;;;12.91;100.00;99154.17;109790;1250;63924;-65
2023/10/07 01:02:51;;;;;;;4.90;2.90;;;;;;;12.83;100.00;99145.98;109613;1249;59053;-66
2023/10/07 01:05:27;;;;;;;5.20;3.00;;;;;;;12.79;100.00;99139.89;109756;1249;67684;-66
2023/10/07 01:07:54;;;;;;;4.10;2.90;;;;;;;12.75;100.00;99142.32;109729;1249;59090;-66
2023/10/07 01:10:31;;;;;;;6.10;3.10;;;;;;;12.72;100.00;99146.92;109741;1250;62621;-65
2023/10/07 01:13:03;;;;;;;3.80;2.60;;;;;;;12.70;100.00;99142.80;109710;1249;58925;-65
2023/10/07 01:15:30;;;;;;;5.50;3.30;;;;;;;12.67;100.00;99138.58;109762;1249;58873;-65
2023/10/07 01:17:57;;;;;;;5.50;3.20;;;;;;;12.64;100.00;99137.73;109558;1249;64916;-65
2023/10/07 01:23:09;;;;;;;3.90;2.70;;;;;;;12.61;100.00;99134.04;109779;1250;62908;-65
2023/10/07 01:25:37;;;;;;;7.20;2.80;;;;;;;12.62;100.00;99136.69;109737;1249;59726;-66
2023/10/07 01:28:04;;;;;;;4.70;3.20;;;;;;;12.63;100.00;99138.19;109752;1251;58966;-66
2023/10/07 01:30:34;;;;;;;4.60;2.90;;;;;;;12.65;100.00;99140.73;109692;1251;65331;-65
2023/10/07 01:33:04;;;;;;;3.50;2.50;;;;;;;12.67;100.00;99140.59;109738;1250;58989;-65
2023/10/07 01:35:39;;;;;;;3.80;2.70;;;;;;;12.67;100.00;99137.69;109779;1250;62943;-65
2023/10/07 01:38:08;;;;;;;4.20;2.40;;;;;;;12.68;100.00;99135.11;109761;1250;58978;-65
2023/10/07 01:41:14;;;;;;;4.70;2.70;;;;;;;12.70;100.00;99132.16;109771;1250;58932;-66
2023/10/07 01:43:28;;;;;;;4.30;2.80;;;;;;;12.73;100.00;99128.91;109725;1251;66104;-66
2023/10/07 01:45:55;;;;;;;5.30;2.60;;;;;;;12.75;100.00;99126.61;109771;1251;58994;-65
2023/10/07 01:48:21;;;;;;;6.20;2.60;;;;;;;12.78;100.00;99123.52;109731;1250;59026;-65
2023/10/07 01:50:50;;;;;;;6.50;4.00;;;;;;;12.83;100.00;99116.89;109713;1249;59343;-65
2023/10/07 01:53:16;;;;;;;7.20;3.00;;;;;;;12.85;100.00;99111.96;109762;1251;59026;-66
2023/10/07 01:55:43;;;;;;;6.70;3.20;;;;;;;12.86;100.00;99103.89;109778;1249;59467;-66
2023/10/07 01:58:13;;;;;;;4.50;2.90;;;;;;;12.86;100.00;99096.89;109550;1250;59183;-66
2023/10/07 02:00:51;;;;;;;4.80;3.10;;;;;;;12.86;100.00;99092.61;109742;1250;64044;-65
2023/10/07 02:03:23;;;;;;;6.10;3.10;;;;;;;12.85;100.00;99085.73;109739;1249;59037;-65
2023/10/07 02:05:51;;;;;;;7.00;3.10;;;;;;;12.85;100.00;99085.77;109576;1249;59010;-65
2023/10/07 02:08:23;;;;;;;5.30;3.00;;;;;;;12.87;100.00;99084.92;109703;1249;64508;-65
2023/10/07 02:10:56;;;;;;;4.60;3.00;;;;;;;12.89;100.00;99086.71;109751;1250;59843;-65
2023/10/07 02:13:23;;;;;;;4.60;3.10;;;;;;;12.90;100.00;99087.15;109754;1249;62931;-65
2023/10/07 02:15:54;;;;;;;5.00;3.40;;;;;;;12.92;100.00;99085.95;109748;1249;59017;-66
2023/10/07 02:18:22;;;;;;;8.40;3.50;;;;;;;12.96;100.00;99085.31;109826;1251;59004;-65
2023/10/07 02:20:52;;;;;;;4.30;3.00;;;;;;;12.99;100.00;99081.11;109728;1249;65000;-65
2023/10/07 02:23:34;;;;;;;3.90;2.60;;;;;;;13.05;100.00;99078.18;109775;1250;68940;-66
2023/10/07 02:26:05;;;;;;;6.10;3.50;;;;;;;13.10;100.00;99071.23;109737;1251;63413;-65
2023/10/07 02:28:35;;;;;;;6.00;3.10;;;;;;;13.14;100.00;99067.30;109721;1250;59042;-65
2023/10/07 02:31:07;;;;;;;7.80;3.30;;;;;;;13.19;100.00;99058.70;109733;1250;60128;-65
2023/10/07 02:33:42;;;;;;;5.50;3.10;;;;;;;13.23;100.00;99062.87;109750;1250;67355;-65
2023/10/07 02:36:27;;;;;;;4.70;3.10;;;;;;;13.31;100.00;99063.38;109747;1251;61263;-66
2023/10/07 02:41:47;;;;;;;;;;;;;;;13.42;100.00;99064.35;109715;1251;59032;-66
2023/10/07 02:44:25;;;;;;;4.40;2.90;;;;;;;13.47;100.00;99062.48;109794;1250;58859;-65
2023/10/07 02:46:56;;;;;;;7.00;3.20;;;;;;;13.52;100.00;99055.55;109726;1250;66083;-65
2023/10/07 02:49:22;;;;;;;5.50;3.20;;;;;;;13.57;100.00;99052.79;109727;1250;60178;-65
2023/10/07 02:51:55;;;;;;;5.50;3.50;;;;;;;13.60;100.00;99053.40;109783;1250;63854;-65
2023/10/07 02:54:23;;;;;;;5.50;3.20;;;;;;;13.62;100.00;99054.94;109786;1249;58986;-65
2023/10/07 02:57:07;;;;;;;8.50;3.20;;;;;;;13.61;100.00;99046.95;109786;1249;58880;-65
2023/10/07 02:59:50;;;;;;;5.50;3.30;;;;;;;13.62;100.00;99046.34;109749;1249;74495;-65
2023/10/07 03:04:46;;;;;;;4.50;3.20;;;;;;;13.65;100.00;99026.17;109748;1249;64010;-66
2023/10/07 03:07:14;;;;;;;5.10;3.20;;;;;;;13.65;100.00;99025.92;109754;1249;58943;-65
2023/10/07 03:10:54;;;;;;;6.30;3.40;;;;;;;13.69;100.00;99022.38;109782;1250;58973;-66
2023/10/07 03:12:47;;;;;;;;;;;;;;;13.74;100.00;99018.11;109684;1250;64511;-66
2023/10/07 03:15:29;;;;;;;6.90;3.60;;;;;;;13.72;100.00;99021.26;109763;1249;59021;-65
2023/10/07 03:17:56;;;;;;;6.40;3.50;;;;;;;13.73;100.00;99026.05;109563;1250;64087;-66
2023/10/07 03:28:20;;;;;;;5.20;3.50;;;;;;;13.74;100.00;99032.32;109729;1250;58926;-66
2023/10/07 03:30:56;;;;;;;7.40;4.00;;;;;;;13.75;100.00;99030.16;109422;1249;63769;-65
2023/10/07 03:33:43;;;;;;;6.30;3.50;;;;;;;13.77;100.00;99030.02;109805;1253;58976;-65
2023/10/07 03:39:16;;;;;;;7.90;4.50;;;;;;;13.79;100.00;99020.69;109832;1249;65883;-66
2023/10/07 03:41:47;;;;;;;7.10;3.70;;;;;;;13.80;100.00;99015.81;109867;1250;60020;-66
2023/10/07 03:44:18;;;;;;;7.00;3.50;;;;;;;13.80;100.00;99017.05;109778;1251;62526;-66
2023/10/07 03:46:48;;;;;;;6.20;3.50;;;;;;;13.80;100.00;99017.20;109814;1249;59205;-66
2023/10/07 03:49:21;;;;;;;6.60;3.90;;;;;;;13.80;100.00;99015.41;109885;1248;59160;-65
2023/10/07 03:52:12;;;;;;;7.70;3.90;;;;;;;13.83;100.00;99017.86;109848;1249;64493;-65
2023/10/07 03:54:43;;;;;;;7.50;4.10;;;;;;;13.84;100.00;99013.84;109831;1250;59107;-65
2023/10/07 03:57:09;;;;;;;8.50;4.20;;;;;;;13.86;100.00;99007.43;109868;1249;64043;-66
2023/10/07 03:59:39;;;;;;;6.90;3.40;;;;;;;13.90;100.00;99007.31;109849;1249;58980;-65
2023/10/07 04:05:00;;;;;;;7.50;3.70;;;;;;;13.99;100.00;99010.36;109830;1249;65888;-66
2023/10/07 04:07:31;;;;;;;6.40;3.30;;;;;;;14.01;100.00;99016.05;109864;1250;60176;-66
2023/10/07 04:12:47;;;;;;;9.00;3.60;;;;;;;14.09;100.00;99021.37;109856;1250;58925;-65
2023/10/07 04:15:17;;;;;;;6.90;3.70;;;;;;;14.10;100.00;99025.05;109829;1249;58931;-65
2023/10/07 04:17:44;;;;;;;5.30;3.10;;;;;;;14.11;100.00;99024.59;109840;1249;66811;-66
2023/10/07 04:23:00;;;;;;;5.60;4.10;;;;;;;14.12;100.00;99021.14;109500;1249;65284;-65
2023/10/07 04:25:27;;;;;;;6.20;3.30;;;;;;;14.09;100.00;99023.68;109845;1250;59002;-65
2023/10/07 04:27:54;;;;;;;7.10;3.70;;;;;;;14.08;100.00;99018.92;109471;1250;59013;-65
2023/10/07 04:30:38;;;;;;;5.80;3.40;;;;;;;14.08;100.00;99013.91;109814;1250;59642;-65
2023/10/07 04:33:08;;;;;;;10.50;4.10;;;;;;;14.09;100.00;99010.09;109773;1249;59093;-66
2023/10/07 04:35:34;;;;;;;6.40;3.90;;;;;;;14.12;100.00;99015.17;109776;1249;63737;-65
2023/10/07 04:38:39;;;;;;;8.30;4.20;;;;;;;14.16;100.00;99019.14;109571;1249;59028;-66
2023/10/07 04:43:59;;;;;;;8.40;4.00;;;;;;;14.18;100.00;99022.16;109801;1249;64816;-66
2023/10/07 04:46:28;;;;;;;8.20;4.10;;;;;;;14.20;100.00;99020.44;109772;1249;60133;-66
2023/10/07 04:48:57;;;;;;;6.60;3.70;;;;;;;14.21;100.00;99010.70;109785;1249;62929;-65
2023/10/07 04:53:59;;;;;;;9.10;5.00;;;;;;;14.23;100.00;99010.55;109722;1249;59799;-66
2023/10/07 04:56:27;;;;;;;7.30;4.00;;;;;;;14.26;100.00;99015.98;109834;1249;66273;-65
2023/10/07 04:58:54;;;;;;;7.40;4.10;;;;;;;14.30;100.00;99011.20;109725;1249;60207;-66
2023/10/07 05:01:33;;;;;;;7.30;4.40;;;;;;;14.34;100.00;99011.44;109731;1249;62864;-66
2023/10/07 05:04:04;;;;;;;7.10;3.90;;;;;;;14.37;100.00;99011.53;109696;1250;58964;-66
2023/10/07 05:06:35;;;;;;;9.10;4.60;;;;;;;14.40;100.00;99011.98;109744;1249;59000;-65
2023/10/07 05:09:03;;;;;;;9.40;4.00;;;;;;;14.42;100.00;99020.09;109759;1249;65729;-66
2023/10/07 05:11:29;;;;;;;8.70;4.70;;;;;;;14.43;100.00;99021.60;109782;1249;60164;-65
2023/10/07 05:13:56;;;;;;;9.60;4.20;;;;;;;14.44;100.00;99019.58;109752;1250;59062;-65
2023/10/07 05:16:22;;;;;;;7.30;4.10;;;;;;;14.46;100.00;99015.64;109717;1249;59253;-66
2023/10/07 05:18:49;;;;;;;8.50;4.70;;;;;;;14.49;100.00;99018.77;109793;1249;59038;-65
2023/10/07 05:21:19;;;;;;;7.90;4.30;;;;;;;14.52;100.00;99017.98;109756;1249;59071;-65
2023/10/07 05:23:46;;;;;;;8.80;4.10;;;;;;;14.55;100.00;99018.30;109751;1249;60343;-66
2023/10/07 05:26:17;;;;;;;7.70;4.50;;;;;;;14.58;100.00;99021.10;109730;1250;59062;-66
2023/10/07 05:28:46;;;;;;;6.80;4.40;;;;;;;14.61;100.00;99021.91;109718;1249;59017;-65
2023/10/07 05:31:14;;;;;;;8.70;4.70;;;;;;;14.63;100.00;99027.48;109772;1249;58943;-66
2023/10/07 05:33:42;;;;;;;9.70;4.40;;;;;;;14.64;100.00;99025.81;109739;1249;64497;-65
2023/10/07 05:36:13;;;;;;;9.60;4.60;;;;;;;14.66;100.00;99027.62;109757;1249;60025;-66
2023/10/07 05:38:44;;;;;;;10.50;4.90;;;;;;;14.69;100.00;99030.06;109741;1250;62582;-65
2023/10/07 05:41:15;;;;;;;7.60;4.20;;;;;;;14.71;100.00;99030.07;109780;1249;59036;-65
2023/10/07 05:43:43;;;;;;;8.90;4.70;;;;;;;14.72;100.00;99031.02;109497;1249;59098;-65
2023/10/07 05:46:13;;;;;;;7.10;4.20;;;;;;;14.74;100.00;99032.87;109711;1250;66055;-65
2023/10/07 05:48:40;;;;;;;7.30;4.30;;;;;;;14.75;100.00;99038.30;109731;1249;58950;-65
2023/10/07 05:51:09;;;;;;;6.60;4.30;;;;;;;14.76;100.00;99038.53;109668;1249;72799;-65
2023/10/07 05:53:39;;;;;;;8.60;4.20;;;;;;;14.78;100.00;99041.77;109730;1249;59012;-65
2023/10/07 05:56:06;;;;;;;;;;;;;;;14.81;100.00;99037.10;109732;1249;58952;-65
2023/10/07 05:58:37;;;;;;;9.20;4.40;;;;;;;14.83;100.00;99036.53;109784;1249;66105;-65
2023/10/07 06:01:05;;;;;;;6.80;4.00;;;;;;;14.88;100.00;99040.21;109760;1249;60114;-65
2023/10/07 06:03:32;;;;;;;8.40;4.80;;;;;;;14.95;100.00;99043.92;109743;1249;64148;-65
2023/10/07 06:06:01;;;;;;;7.30;4.40;;;;;;;15.04;100.00;99040.54;109736;1249;59003;-66
2023/10/07 06:08:28;;;;;;;8.40;4.40;;;;;;;15.11;100.00;99034.38;109725;1249;58887;-66
2023/10/07 06:10:56;;;;;;;6.20;3.90;;;;;;;15.18;100.00;99035.92;109755;1249;66060;-66
2023/10/07 06:13:23;;;;;;;7.30;4.80;;;;;;;15.23;100.00;99043.05;109742;1249;59097;-66
2023/10/07 06:15:50;;;;;;;6.70;4.30;;;;;;;15.24;100.00;99042.39;109759;1249;64057;-66
2023/10/07 06:18:18;;;;;;;10.80;4.80;;;;;;;15.26;100.00;99041.27;109689;1249;59008;-65
2023/10/07 06:20:50;;;;;;;9.70;4.60;;;;;;;15.28;100.00;99041.46;109705;1249;58946;-66
2023/10/07 06:23:24;;;;;;;7.80;4.30;;;;;;;15.31;100.00;99039.79;109772;1249;66261;-67
2023/10/07 06:25:52;;;;;;;7.30;4.30;;;;;;;15.37;100.00;99043.92;109786;1249;59499;-66
2023/10/07 06:31:27;;;;;;;8.90;4.20;;;;;;;15.52;100.00;99048.58;109707;1249;59066;-65
2023/10/07 06:34:14;;;;;;;8.70;4.30;;;;;;;15.57;100.00;99056.52;109742;1249;58939;-66
2023/10/07 06:36:41;;;;;;;7.30;4.10;;;;;;;15.64;100.00;99060.60;109558;1250;66119;-66
2023/10/07 06:39:07;;;;;;;7.00;4.00;;;;;;;15.73;100.00;99060.93;109717;1249;59196;-66
2023/10/07 06:41:38;;;;;;;7.50;4.80;;;;;;;15.85;100.00;99064.05;109742;1249;63825;-66
2023/10/07 06:44:08;;;;;;;7.20;4.40;;;;;;;15.94;100.00;99064.95;109623;1249;142359;-67
2023/10/07 06:46:41;;;;;;;6.20;4.40;;;;;;;16.05;100.00;99063.50;109814;1249;58921;-65
2023/10/07 06:49:16;;;;;;;6.40;4.70;;;;;;;16.17;100.00;99061.16;109741;1249;66234;-66
2023/10/07 06:51:51;;;;;;;8.50;4.50;;;;;;;16.31;100.00;99059.05;109719;1249;59154;-66
2023/10/07 06:54:17;;;;;;;10.20;5.00;;;;;;;16.39;100.00;99060.23;109740;1249;63736;-66
2023/10/07 06:56:45;;;;;;;8.80;4.70;;;;;;;16.46;100.00;99065.93;109732;1249;59038;-67
2023/10/07 06:59:13;;;;;;;7.20;4.30;;;;;;;16.49;100.00;99070.30;109789;1249;59001;-66
2023/10/07 07:04:10;;;;;;;8.40;4.80;;;;;;;16.45;100.00;99068.01;109727;1249;58982;-66
2023/10/07 07:06:42;;;;;;;7.40;4.30;;;;;;;16.38;100.00;99070.02;109757;1249;64098;-66
2023/10/07 07:12:04;;;;;;;7.30;5.00;;;;;;;16.32;100.00;99066.83;109784;1249;58823;-66
2023/10/07 07:14:31;;;;;;;8.00;4.30;;;;;;;16.33;100.00;99066.17;109534;1249;66209;-66
2023/10/07 07:17:28;;;;;;;6.60;4.60;;;;;;;16.38;100.00;99065.73;109566;1249;60173;-66
2023/10/07 07:19:44;;;;;;;9.00;4.80;;;;;;;16.48;100.00;99063.77;109778;1249;63952;-66
2023/10/07 07:22:11;;;;;;;6.90;4.30;;;;;;;16.58;100.00;99068.04;109744;1249;59023;-67
2023/10/07 07:24:41;;;;;;;8.10;4.60;;;;;;;16.65;100.00;99065.48;109712;1249;59171;-66
2023/10/07 07:27:08;;;;;;;7.50;4.10;;;;;;;16.67;100.00;99057.70;109730;1249;66010;-67
2023/10/07 07:29:35;;;;;;;7.20;4.30;;;;;;;16.73;100.00;99056.67;109731;1249;58992;-66
2023/10/07 07:32:04;;;;;;;7.90;4.30;;;;;;;16.80;100.00;99053.92;109697;1249;59023;-66
2023/10/07 07:34:36;;;;;;;7.80;4.20;;;;;;;16.88;100.00;99053.40;109709;1250;59020;-65
2023/10/07 07:37:03;;;;;;;7.50;4.80;;;;;;;17.03;100.00;99054.16;109695;1249;58870;-67
2023/10/07 07:39:32;;;;;;;7.50;4.20;;;;;;;17.16;100.00;99058.29;109729;1249;64641;-66
2023/10/07 07:42:15;;;;;;;7.50;5.10;;;;;;;17.27;100.00;99060.82;109804;1249;59852;-66
2023/10/07 07:44:56;;;;;;;8.20;4.60;;;;;;;17.37;100.00;99057.04;109728;1249;65201;-66
2023/10/07 07:47:23;;;;;;;8.90;4.30;;;;;;;17.44;100.00;99043.84;109599;1249;58998;-67
2023/10/07 07:49:51;;;;;;;8.10;4.60;;;;;;;17.45;100.00;99048.04;109761;1249;59035;-66
2023/10/07 07:52:19;;;;;;;7.50;4.20;;;;;;;17.49;100.00;99048.54;109716;1249;64636;-66
2023/10/07 07:54:46;;;;;;;9.70;5.10;;;;;;;17.51;100.00;99042.06;109761;1249;60140;-66
2023/10/07 07:57:15;;;;;;;8.30;4.80;;;;;;;17.53;100.00;99036.13;109728;1249;63735;-67
2023/10/07 07:59:43;;;;;;;8.00;4.30;;;;;;;17.56;100.00;99047.89;109724;1249;59026;-66
2023/10/07 08:02:12;;;;;;;6.90;4.80;;;;;;;17.65;100.00;99041.42;109707;1249;58974;-64
2023/10/07 08:04:46;;;;;;;7.10;4.40;;;;;;;17.82;100.00;99035.73;109733;1249;66036;-68
2023/10/07 08:09:52;;;;;;;6.20;4.40;;;;;;;18.13;100.00;99047.43;109694;1249;64050;-65
2023/10/07 08:12:28;;;;;;;5.60;4.20;;;;;;;18.36;100.00;99046.31;109720;1249;58959;-65
2023/10/07 08:14:58;;;;;;;11.40;5.10;;;;;;;18.42;100.00;99047.70;109795;1249;58985;-64
2023/10/07 08:17:27;;;;;;;8.80;4.60;;;;;;;18.39;100.00;99052.48;109734;1249;67022;-65
2023/10/07 08:19:54;;;;;;;8.50;4.40;;;;;;;18.32;100.00;99050.82;109785;1249;59006;-65
2023/10/07 08:22:21;;;;;;;5.90;4.00;;;;;;;18.18;100.00;99042.32;109792;1249;64062;-65
2023/10/07 08:24:49;;;;;;;7.70;3.90;;;;;;;17.99;100.00;99041.45;109613;1249;58942;-65
2023/10/07 08:30:10;;;;;;;6.90;3.90;;;;;;;17.71;100.00;99044.98;109741;1249;67173;-66
2023/10/07 08:32:41;;;;;;;7.60;4.00;;;;;;;17.62;100.00;99050.41;109750;1250;59469;-66
2023/10/07 08:35:18;;;;;;;6.90;4.10;;;;;;;17.65;100.00;99046.34;109717;1249;64869;-65
2023/10/07 08:37:45;;;;;;;8.70;4.60;;;;;;;17.74;100.00;99044.18;109745;1250;59147;-67
2023/10/07 08:40:49;;;;;;;7.30;4.10;;;;;;;17.89;100.00;99041.86;109793;1249;59005;-66
2023/10/07 08:43:16;;;;;;;7.40;4.20;;;;;;;18.09;100.00;99036.95;109725;1249;66066;-66
2023/10/07 08:45:45;;;;;;;7.50;4.10;;;;;;;18.27;100.00;99035.18;109791;1249;60185;-66
2023/10/07 08:48:15;;;;;;;8.60;4.50;;;;;;;18.43;100.00;99031.92;109714;1249;65217;-65
2023/10/07 08:50:58;;;;;;;7.90;4.40;;;;;;;18.66;100.00;99024.07;109688;1249;59009;-65
2023/10/07 08:53:26;;;;;;;6.80;4.50;;;;;;;18.81;100.00;99014.14;109785;1250;59035;-65
2023/10/07 08:55:54;;;;;;;9.10;4.20;;;;;;;18.85;100.00;99009.77;109765;1250;64854;-65
2023/10/07 08:58:25;;;;;;;8.10;4.30;;;;;;;18.77;100.00;99005.35;109741;1250;60148;-65
2023/10/07 09:00:53;;;;;;;6.20;3.80;;;;;;;18.63;100.00;99013.35;109731;1249;64064;-66
2023/10/07 09:03:26;;;;;;;7.40;4.10;;;;;;;18.56;100.00;99017.11;109711;1249;58914;-65
2023/10/07 09:05:55;;;;;;;9.30;3.80;;;;;;;18.58;100.00;99023.42;109744;1249;59060;-65
2023/10/07 09:08:22;;;;;;;5.20;3.70;;;;;;;18.65;100.00;99025.44;109765;1249;67306;-65
2023/10/07 09:10:55;;;;;;;6.80;3.20;;;;;;;18.75;100.00;99021.98;109722;1250;60124;-65
2023/10/07 09:13:29;;;;;;;8.60;3.70;;;;;;;18.88;100.00;99021.14;109719;1249;62512;-65
2023/10/07 09:16:07;;;;;;;5.60;3.80;;;;;;;19.09;100.00;99021.45;109695;1249;59297;-65
2023/10/07 09:18:41;;;;;;;7.50;3.90;;;;;;;19.28;100.00;99021.02;109488;1249;59020;-65
2023/10/07 09:21:19;;;;;;;5.60;4.10;;;;;;;19.40;100.00;99015.12;109723;1250;65871;-64
2023/10/07 09:23:51;;;;;;;6.40;4.30;;;;;;;19.48;100.00;99012.11;109764;1249;59005;-65
2023/10/07 09:26:33;;;;;;;6.10;3.90;;;;;;;19.59;100.00;99009.36;109791;1249;65254;-64
2023/10/07 09:29:34;;;;;;;8.00;4.00;;;;;;;19.66;100.00;99009.19;109730;1249;58993;-66
2023/10/07 09:31:56;;;;;;;5.20;3.80;;;;;;;19.81;100.00;99011.23;109702;1249;58948;-66
2023/10/07 09:34:30;;;;;;;6.30;4.20;;;;;;;19.92;100.00;99014.06;109788;1249;65956;-66
2023/10/07 09:37:08;;;;;;;6.20;3.80;;;;;;;19.93;100.00;99011.60;109789;1249;59124;-66
2023/10/07 09:39:43;;;;;;;7.20;3.90;;;;;;;19.89;100.00;99006.76;109753;1249;64346;-66
2023/10/07 09:42:25;;;;;;;6.50;3.60;;;;;;;19.88;100.00;99006.38;109745;1249;58961;-67
2023/10/07 09:45:02;;;;;;;6.00;3.70;;;;;;;19.97;100.00;99004.35;109747;1249;61974;-66
2023/10/07 09:47:28;;;;;;;5.00;3.60;;;;;;;20.00;100.00;98997.70;109770;1249;66198;-67
2023/10/07 09:49:57;;;;;;;4.90;3.50;;;;;;;20.05;100.00;98996.46;109775;1250;59791;-66
2023/10/07 09:52:29;;;;;;;5.10;3.30;;;;;;;20.04;100.00;99006.18;109729;1249;62808;-66
2023/10/07 09:55:23;;;;;;;5.90;3.80;;;;;;;20.02;100.00;98998.59;109722;1249;58990;-66
2023/10/07 09:58:00;;;;;;;4.40;3.30;;;;;;;20.04;100.00;99001.41;109738;1249;59025;-66
2023/10/07 10:00:42;;;;;;;5.90;3.80;;;;;;;20.12;100.00;99000.93;109800;1250;65744;-65
2023/10/07 10:03:22;;;;;;;5.90;3.70;;;;;;;20.20;100.00;99001.56;109765;1249;59385;-67
2023/10/07 10:05:58;;;;;;;;;;;;;;;20.32;100.00;99003.87;109736;1249;64169;-66
2023/10/07 10:09:09;;;;;;;8.70;3.90;;;;;;;20.47;100.00;99005.88;109771;1249;59187;-66
2023/10/07 10:16:45;;;;;;;6.20;3.40;;;;;;;20.73;100.00;98998.74;109766;1250;59038;-66
2023/10/07 10:19:23;;;;;;;5.80;4.10;;;;;;;20.79;100.00;99002.20;109734;1249;63894;-66
2023/10/07 10:21:51;;;;;;;6.30;3.70;;;;;;;20.85;100.00;99001.42;109729;1249;58958;-66
2023/10/07 10:24:23;;;;;;;4.70;3.70;;;;;;;20.86;100.00;98990.69;109754;1250;58972;-66
2023/10/07 10:26:50;;;;;;;7.20;4.10;;;;;;;20.94;100.00;98993.71;109792;1249;65900;-66
2023/10/07 10:29:27;;;;;;;5.30;3.80;;;;;;;21.01;100.00;98992.21;109773;1249;59975;-66
2023/10/07 10:31:58;;;;;;;7.30;4.00;;;;;;;21.08;100.00;98983.36;109726;1249;64095;-66
2023/10/07 10:34:26;;;;;;;5.50;3.30;;;;;;;21.09;100.00;98983.11;109687;1250;59026;-66
2023/10/07 10:36:56;;;;;;;5.10;3.60;;;;;;;21.10;100.00;98983.30;109770;1249;58926;-66
2023/10/07 10:39:25;;;;;;;6.80;4.00;;;;;;;21.13;100.00;98977.55;109550;1250;65958;-66
2023/10/07 10:41:56;;;;;;;5.60;4.20;;;;;;;21.14;100.00;98969.81;109729;1249;59983;-67
2023/10/07 10:44:22;;;;;;;8.50;4.50;;;;;;;21.18;100.00;98963.62;109710;1250;64098;-66
2023/10/07 10:46:50;;;;;;;7.00;4.40;;;;;;;21.28;100.00;98955.46;109718;1249;58956;-66
2023/10/07 10:49:20;;;;;;;5.70;4.30;;;;;;;21.28;100.00;98946.95;109735;1249;59693;-66
2023/10/07 10:51:54;;;;;;;6.70;3.80;;;;;;;21.27;100.00;98948.14;109746;1250;64921;-66
2023/10/07 10:54:23;;;;;;;7.90;4.00;;;;;;;21.22;100.00;98945.00;109770;1250;60020;-66
2023/10/07 10:57:00;;;;;;;7.30;3.90;;;;;;;21.11;100.00;98947.77;109733;1249;64070;-66
2023/10/07 10:59:47;;;;;;;5.60;3.90;;;;;;;20.93;100.00;98942.14;109547;1249;58977;-66
2023/10/07 11:02:22;;;;;;;5.10;3.80;;;;;;;20.76;100.00;98939.06;109700;1249;58931;-66
2023/10/07 11:04:56;;;;;;;6.80;3.50;;;;;;;20.66;100.00;98935.42;109701;1249;65745;-67
2023/10/07 11:07:24;;;;;;;4.70;3.40;;;;;;;20.63;100.00;98931.98;109750;1249;59192;-66
2023/10/07 11:09:53;;;;;;;5.70;3.50;;;;;;;20.63;100.00;98931.23;109754;1250;63447;-67
2023/10/07 11:12:22;;;;;;;6.50;3.70;;;;;;;20.63;100.00;98930.73;109736;1251;59290;-66
2023/10/07 11:14:49;;;;;;;;;;;;;;;20.73;100.00;98926.36;109768;1250;58877;-66
2023/10/07 11:17:15;;;;;;;6.10;3.90;;;;;;;20.89;100.00;98925.07;109773;1250;59648;-66
2023/10/07 11:19:44;;;;;;;5.50;3.70;;;;;;;21.06;100.00;98922.73;109763;1249;59974;-66
2023/10/07 11:22:13;;;;;;;5.90;3.80;;;;;;;21.18;100.00;98931.42;109749;1250;64155;-66
2023/10/07 11:24:40;;;;;;;6.30;3.70;;;;;;;21.34;100.00;98928.54;109743;1249;58976;-66
2023/10/07 11:27:08;;;;;;;7.30;3.50;;;;;;;21.47;100.00;98917.50;109783;1249;59094;-66
2023/10/07 11:29:36;;;;;;;6.50;3.70;;;;;;;21.63;100.00;98908.88;109788;1250;65796;-66
2023/10/07 11:32:06;;;;;;;5.90;3.90;;;;;;;21.92;100.00;98912.40;109735;1249;60119;-67
2023/10/07 11:34:45;;;;;;;7.00;4.00;;;;;;;22.21;100.00;98910.52;109733;1250;64112;-66
2023/10/07 11:37:13;;;;;;;5.50;3.80;;;;;;;22.33;100.00;98911.92;109707;1250;58968;-67
2023/10/07 11:39:45;;;;;;;9.00;4.30;;;;;;;22.27;100.00;98915.99;109554;1249;59104;-66
2023/10/07 11:42:14;;;;;;;6.40;3.60;;;;;;;22.07;100.00;98910.36;109751;1250;64864;-66
2023/10/07 11:44:42;;;;;;;7.10;3.50;;;;;;;21.80;100.00;98907.80;109736;1250;59337;-66
2023/10/07 11:47:11;;;;;;;8.80;4.20;;;;;;;21.61;100.00;98911.79;109730;1249;64034;-66
2023/10/07 11:49:37;;;;;;;7.10;4.00;;;;;;;21.50;100.00;98905.42;109705;1250;59036;-67
2023/10/07 11:52:05;;;;;;;6.70;4.10;;;;;;;21.41;100.00;98902.13;109776;1249;59061;-66
2023/10/07 11:54:34;;;;;;;6.00;3.90;;;;;;;21.38;100.00;98905.65;109723;1250;64849;-66
2023/10/07 11:57:04;;;;;;;6.00;4.20;;;;;;;21.46;100.00;98903.56;109806;1253;60188;-66
2023/10/07 11:59:35;;;;;;;6.60;4.40;;;;;;;21.63;100.00;98904.25;109719;1250;63901;-67
2023/10/07 12:02:09;;;;;;;6.50;3.40;;;;;;;21.77;100.00;98900.06;109725;1249;59035;-66
2023/10/07 12:04:46;;;;;;;5.30;3.80;;;;;;;21.76;100.00;98899.08;109738;1249;58963;-65
2023/10/07 12:07:16;;;;;;;4.80;3.60;;;;;;;21.67;100.00;98891.02;109734;1250;66088;-66
2023/10/07 12:09:51;;;;;;;;;;;;;;;21.64;100.00;98893.14;109796;1250;60295;-67
2023/10/07 12:12:17;;;;;;;6.60;3.60;;;;;;;21.64;100.00;98892.76;109735;1249;64097;-66
2023/10/07 12:14:43;;;;;;;8.60;3.60;;;;;;;21.61;100.00;98889.34;109703;1249;59244;-66
2023/10/07 12:17:11;;;;;;;8.10;4.20;;;;;;;21.68;100.00;98890.16;109788;1251;59084;-66
2023/10/07 12:19:37;;;;;;;7.00;3.80;;;;;;;21.84;100.00;98885.61;109762;1249;65709;-66
2023/10/07 12:22:05;;;;;;;7.40;3.70;;;;;;;21.83;100.00;98879.79;109692;1250;59236;-66
2023/10/07 12:24:35;;;;;;;7.10;4.00;;;;;;;21.73;100.00;98878.00;109686;1249;64060;-66
2023/10/07 12:27:02;;;;;;;5.60;4.30;;;;;;;21.68;100.00;98870.27;109692;1249;58955;-66
2023/10/07 12:29:28;;;;;;;5.50;4.10;;;;;;;21.64;99.22;98865.33;109743;1250;58968;-66
2023/10/07 12:31:55;;;;;;;6.20;4.00;;;;;;;21.52;98.78;98866.88;109749;1249;66094;-66
2023/10/07 12:34:23;;;;;;;8.20;4.20;;;;;;;21.44;98.56;98860.40;109782;1249;59018;-72
2023/10/07 12:36:53;;;;;;;5.70;3.90;;;;;;;21.41;98.05;98856.05;109545;1254;63744;-72
2023/10/07 12:39:21;;;;;;;8.00;4.30;;;;;;;21.36;97.33;98856.03;109720;1249;59197;-72